createdAt,value
2022-08-05T00:02:21.767Z,83.56
2022-08-05T00:04:52.871Z,83.75
2022-08-05T00:07:59.180Z,84.34
2022-08-05T00:10:10.023Z,83.99
2022-08-05T00:12:48.483Z,83.60
2022-08-05T00:15:55.250Z,84.81
2022-08-05T00:18:10.573Z,86.10
2022-08-05T00:20:48.874Z,89.01
2022-08-05T00:23:15.623Z,88.86
2022-08-05T00:25:45.923Z,92.47
2022-08-05T00:28:13.209Z,93.53
2022-08-05T00:30:39.810Z,93.84
2022-08-05T00:34:42.258Z,91.94
2022-08-05T00:36:16.455Z,93.17
2022-08-05T00:38:41.708Z,93.30
2022-08-05T00:41:11.801Z,93.92
2022-08-05T00:43:47.012Z,92.73
2022-08-05T00:46:16.228Z,91.80
2022-08-05T00:48:50.751Z,93.23
2022-08-05T00:51:50.888Z,94.45
2022-08-05T00:54:06.628Z,94.74
2022-08-05T00:56:33.363Z,94.52
2022-08-05T00:59:00.240Z,94.31
2022-08-05T01:01:42.585Z,96.50
2022-08-05T01:04:15.689Z,94.24
2022-08-05T01:06:43.840Z,91.46
2022-08-05T01:09:17.413Z,93.15
2022-08-05T01:11:51.733Z,95.51
2022-08-05T01:14:28.090Z,97.08
2022-08-05T01:17:15.499Z,98.18
2022-08-05T01:20:03.694Z,99.64
2022-08-05T01:22:46.920Z,99.86
2022-08-05T01:25:39.686Z,100.00
2022-08-05T01:28:20.926Z,97.60
2022-08-05T01:30:56.479Z,99.96
2022-08-05T01:33:35.483Z,100.00
2022-08-05T01:36:13.080Z,100.00
2022-08-05T01:38:48.468Z,100.00
2022-08-05T01:41:21.907Z,100.00
2022-08-05T01:43:51.227Z,100.00
2022-08-05T01:46:43.031Z,100.00
2022-08-05T01:49:23.406Z,100.00
2022-08-05T01:51:58.815Z,100.00
2022-08-05T01:54:46.327Z,100.00
2022-08-05T01:58:09.487Z,100.00
2022-08-05T02:00:12.062Z,100.00
2022-08-05T02:02:53.585Z,100.00
2022-08-05T02:05:25.293Z,100.00
2022-08-05T02:08:01.152Z,100.00
2022-08-05T02:10:35.460Z,100.00
2022-08-05T02:13:16.317Z,100.00
2022-08-05T02:15:54.291Z,100.00
2022-08-05T02:18:34.489Z,100.00
2022-08-05T02:21:18.735Z,100.00
2022-08-05T02:23:50.614Z,100.00
2022-08-05T02:26:20.987Z,100.00
2022-08-05T02:28:50.121Z,100.00
2022-08-05T02:31:26.781Z,100.00
2022-08-05T02:34:01.267Z,100.00
2022-08-05T02:36:31.467Z,100.00
2022-08-05T02:39:00.393Z,100.00
2022-08-05T02:41:43.430Z,100.00
2022-08-05T02:44:18.121Z,100.00
2022-08-05T02:46:59.928Z,100.00
2022-08-05T02:49:36.658Z,100.00
2022-08-05T02:52:08.731Z,100.00
2022-08-05T02:54:41.137Z,100.00
2022-08-05T02:58:19.726Z,100.00
2022-08-05T03:00:01.322Z,100.00
2022-08-05T03:02:39.867Z,100.00
2022-08-05T03:05:10.319Z,100.00
2022-08-05T03:08:01.213Z,100.00
2022-08-05T03:10:27.113Z,100.00
2022-08-05T03:12:54.513Z,100.00
2022-08-05T03:15:25.518Z,100.00
2022-08-05T03:17:55.796Z,100.00
2022-08-05T03:20:24.388Z,100.00
2022-08-05T03:22:52.836Z,100.00
2022-08-05T03:25:32.612Z,100.00
2022-08-05T03:28:09.648Z,100.00
2022-08-05T03:30:38.331Z,100.00
2022-08-05T03:33:08.351Z,100.00
2022-08-05T03:35:40.429Z,100.00
2022-08-05T03:38:11.571Z,100.00
2022-08-05T03:40:45.295Z,100.00
2022-08-05T03:43:58.554Z,100.00
2022-08-05T03:46:02.845Z,100.00
2022-08-05T03:48:35.543Z,100.00
2022-08-05T03:52:37.822Z,100.00
2022-08-05T03:55:53.008Z,100.00
2022-08-05T03:57:41.906Z,100.00
2022-08-05T04:00:16.010Z,100.00
2022-08-05T04:02:57.750Z,100.00
2022-08-05T04:05:33.914Z,100.00
2022-08-05T04:08:29.550Z,100.00
2022-08-05T04:10:55.358Z,100.00
2022-08-05T04:13:22.884Z,98.84
2022-08-05T04:16:04.446Z,98.83
2022-08-05T04:18:34.381Z,96.66
2022-08-05T04:21:04.655Z,94.27
2022-08-05T04:24:05.659Z,92.54
2022-08-05T04:26:19.950Z,89.62
2022-08-05T04:28:50.876Z,87.10
2022-08-05T04:31:20.450Z,88.55
2022-08-05T04:34:18.029Z,87.12
2022-08-05T04:36:45.634Z,86.55
2022-08-05T04:39:13.305Z,85.67
2022-08-05T04:41:40.371Z,84.63
2022-08-05T04:44:09.599Z,84.45
2022-08-05T04:46:37.612Z,80.21
2022-08-05T04:49:05.971Z,72.90
2022-08-05T04:51:39.401Z,65.76
2022-08-05T04:54:06.138Z,61.05
2022-08-05T04:56:37.196Z,56.56
2022-08-05T04:59:21.607Z,53.10
2022-08-05T05:02:35.473Z,49.66
2022-08-05T05:04:38.191Z,49.20
2022-08-05T05:07:09.419Z,47.22
2022-08-05T05:09:37.223Z,45.42
2022-08-05T05:12:04.884Z,45.44
2022-08-05T05:14:33.322Z,44.41
2022-08-05T05:17:03.721Z,43.33
2022-08-05T05:19:37.289Z,43.14
2022-08-05T05:22:23.117Z,41.69
2022-08-05T05:24:59.803Z,41.30
2022-08-05T05:27:44.636Z,42.84
2022-08-05T05:30:29.077Z,44.79
2022-08-05T05:33:00.631Z,45.17
2022-08-05T05:35:34.251Z,43.61
2022-08-05T05:38:05.584Z,45.51
2022-08-05T05:40:35.709Z,44.92
2022-08-05T05:43:03.606Z,45.34
2022-08-05T05:45:30.868Z,45.20
2022-08-05T05:48:06.333Z,45.56
2022-08-05T05:50:43.940Z,47.01
2022-08-05T05:53:21.117Z,46.50
2022-08-05T05:55:51.941Z,46.33
2022-08-05T05:58:30.177Z,46.53
2022-08-05T06:01:12.078Z,46.32
2022-08-05T06:04:00.872Z,47.39
2022-08-05T06:06:33.238Z,47.71
2022-08-05T06:09:05.607Z,46.86
2022-08-05T06:11:35.104Z,46.03
2022-08-05T06:14:06.358Z,44.71
2022-08-05T06:16:36.766Z,46.19
2022-08-05T06:19:05.476Z,44.59
2022-08-05T06:21:36.065Z,45.55
2022-08-05T06:24:07.753Z,45.56
2022-08-05T06:26:52.391Z,45.96
2022-08-05T06:29:42.948Z,45.69
2022-08-05T06:32:25.644Z,46.06
2022-08-05T06:34:57.212Z,45.80
2022-08-05T06:37:56.014Z,45.54
2022-08-05T06:40:13.661Z,44.97
2022-08-05T06:42:40.994Z,45.35
2022-08-05T06:45:09.425Z,45.17
2022-08-05T06:48:36.742Z,44.95
2022-08-05T06:50:25.039Z,45.51
2022-08-05T06:52:58.554Z,44.39
2022-08-05T06:55:27.271Z,44.71
2022-08-05T06:58:03.890Z,45.08
2022-08-05T07:00:41.724Z,45.87
2022-08-05T07:03:09.670Z,44.55
2022-08-05T07:05:37.727Z,44.67
2022-08-05T07:08:10.721Z,44.94
2022-08-05T07:10:38.109Z,45.13
2022-08-05T07:13:57.114Z,45.39
2022-08-05T07:18:00.995Z,44.99
2022-08-05T07:19:38.923Z,44.78
2022-08-05T07:22:06.851Z,43.71
2022-08-05T07:24:35.184Z,43.76
2022-08-05T07:27:10.898Z,43.33
2022-08-05T07:30:25.408Z,43.38
2022-08-05T07:32:26.175Z,43.07
2022-08-05T07:34:57.738Z,42.77
2022-08-05T07:37:25.111Z,44.54
2022-08-05T07:40:26.818Z,43.71
2022-08-05T07:42:51.730Z,44.21
2022-08-05T07:45:19.253Z,44.40
2022-08-05T07:48:06.210Z,43.39
2022-08-05T07:50:35.450Z,43.04
2022-08-05T07:53:03.582Z,42.76
2022-08-05T07:55:44.396Z,42.99
2022-08-05T07:58:58.593Z,42.21
2022-08-05T08:01:06.184Z,40.93
2022-08-05T08:03:44.852Z,41.02
2022-08-05T08:06:11.929Z,43.00
2022-08-05T08:08:38.559Z,41.52
2022-08-05T08:11:08.925Z,41.25
2022-08-05T08:13:42.960Z,42.83
2022-08-05T08:16:34.354Z,42.29
2022-08-05T08:19:03.791Z,41.75
2022-08-05T08:21:33.391Z,39.54
2022-08-05T08:24:04.972Z,38.03
2022-08-05T08:26:33.093Z,37.54
2022-08-05T08:29:21.837Z,36.62
2022-08-05T08:31:49.703Z,36.66
2022-08-05T08:34:30.867Z,36.41
2022-08-05T08:37:05.326Z,36.64
2022-08-05T08:39:32.703Z,36.05
2022-08-05T08:42:10.816Z,35.51
2022-08-05T08:45:23.840Z,36.17
2022-08-05T08:48:07.050Z,34.78
2022-08-05T08:51:03.833Z,34.64
2022-08-05T08:53:28.894Z,33.60
2022-08-05T08:56:05.252Z,33.58
2022-08-05T08:58:43.098Z,34.08
2022-08-05T09:01:15.805Z,34.22
2022-08-05T09:03:47.565Z,34.60
2022-08-05T09:06:18.667Z,34.17
2022-08-05T09:08:48.609Z,34.36
2022-08-05T09:11:16.142Z,34.67
2022-08-05T09:14:09.517Z,33.30
2022-08-05T09:16:31.039Z,33.51
2022-08-05T09:18:59.411Z,33.95
2022-08-05T09:22:23.426Z,32.40
2022-08-05T09:24:15.941Z,31.62
2022-08-05T09:26:47.616Z,30.51
2022-08-05T09:29:19.272Z,30.39
2022-08-05T09:32:40.284Z,31.02
2022-08-05T09:34:55.206Z,30.33
2022-08-05T09:38:13.054Z,29.84
2022-08-05T09:40:39.673Z,29.85
2022-08-05T09:43:40.560Z,28.97
2022-08-05T09:46:30.501Z,28.65
2022-08-05T09:49:08.433Z,31.21
2022-08-05T09:51:48.815Z,30.04
2022-08-05T09:54:21.364Z,29.50
2022-08-05T09:56:56.214Z,29.54
2022-08-05T09:59:27.690Z,29.63
2022-08-05T10:01:58.397Z,29.28
2022-08-05T10:04:35.897Z,28.95
2022-08-05T10:07:14.246Z,29.09
2022-08-05T10:10:14.379Z,28.22
2022-08-05T10:12:49.699Z,28.83
2022-08-05T10:15:39.226Z,28.50
2022-08-05T10:18:19.832Z,27.38
2022-08-05T10:21:08.467Z,27.62
2022-08-05T10:23:58.974Z,27.88
2022-08-05T10:26:32.352Z,28.49
2022-08-05T10:28:59.950Z,28.13
2022-08-05T10:32:53.354Z,27.79
2022-08-05T10:34:17.161Z,27.75
2022-08-05T10:36:44.326Z,27.38
2022-08-05T10:40:04.305Z,27.82
2022-08-05T10:42:33.592Z,28.30
2022-08-05T10:45:02.346Z,28.06
2022-08-05T10:48:29.994Z,28.23
2022-08-05T10:51:06.181Z,27.83
2022-08-05T10:53:51.820Z,28.23
2022-08-05T10:56:26.041Z,27.53
2022-08-05T10:58:55.934Z,28.06
2022-08-05T11:01:55.082Z,27.49
2022-08-05T11:04:22.604Z,28.19
2022-08-05T11:07:04.555Z,28.20
2022-08-05T11:10:04.006Z,28.41
2022-08-05T11:12:45.361Z,28.38
2022-08-05T11:15:21.296Z,28.31
2022-08-05T11:18:00.087Z,28.47
2022-08-05T11:20:47.608Z,28.37
2022-08-05T11:24:03.846Z,27.85
2022-08-05T11:26:32.341Z,27.75
2022-08-05T11:29:12.146Z,27.29
2022-08-05T11:31:57.406Z,26.93
2022-08-05T11:34:50.882Z,27.34
2022-08-05T11:38:29.525Z,27.07
2022-08-05T11:41:35.698Z,28.32
2022-08-05T11:44:40.139Z,28.73
2022-08-05T11:47:11.763Z,28.63
2022-08-05T11:49:43.351Z,29.34
2022-08-05T11:52:29.198Z,29.17
2022-08-05T11:54:58.511Z,27.36
2022-08-05T11:58:08.624Z,28.04
2022-08-05T12:00:31.765Z,27.39
2022-08-05T12:03:15.848Z,27.14
2022-08-05T12:05:51.072Z,26.82
2022-08-05T12:08:18.633Z,27.18
2022-08-05T12:10:48.725Z,26.89
2022-08-05T12:13:27.839Z,26.87
2022-08-05T12:16:14.129Z,27.27
2022-08-05T12:18:42.710Z,27.28
2022-08-05T12:21:30.279Z,28.14
2022-08-05T12:24:05.248Z,27.70
2022-08-05T12:26:44.023Z,29.03
2022-08-05T12:29:16.388Z,29.00
2022-08-05T12:31:55.275Z,29.26
2022-08-05T12:34:26.857Z,29.31
2022-08-05T12:36:54.720Z,29.32
2022-08-05T12:39:23.715Z,29.74
2022-08-05T12:42:00.218Z,29.33
2022-08-05T12:44:33.229Z,29.67
2022-08-05T12:47:01.771Z,29.09
2022-08-05T12:50:03.253Z,29.46
2022-08-05T12:52:32.367Z,29.19
2022-08-05T12:55:22.127Z,29.63
2022-08-05T12:58:38.235Z,28.93
2022-08-05T13:02:02.521Z,26.87
2022-08-05T13:03:35.206Z,27.27
2022-08-05T13:06:11.606Z,27.25
2022-08-05T13:08:38.918Z,26.91
2022-08-05T13:11:07.978Z,25.88
2022-08-05T13:14:04.569Z,25.68
2022-08-05T13:16:28.005Z,24.92
2022-08-05T13:18:58.738Z,25.37
2022-08-05T13:21:28.520Z,24.86
2022-08-05T13:24:08.796Z,25.16
2022-08-05T13:26:36.365Z,24.82
2022-08-05T13:29:05.194Z,25.57
2022-08-05T13:31:34.063Z,25.79
2022-08-05T13:34:24.492Z,25.60
2022-08-05T13:36:53.838Z,26.39
2022-08-05T13:40:13.176Z,25.65
2022-08-05T13:42:14.680Z,26.47
2022-08-05T13:44:46.169Z,26.09
2022-08-05T13:47:28.175Z,25.04
2022-08-05T13:50:06.863Z,25.61
2022-08-05T13:52:38.292Z,25.68
2022-08-05T13:55:07.302Z,25.61
2022-08-05T13:57:51.050Z,26.38
2022-08-05T14:00:26.882Z,26.58
2022-08-05T14:02:55.855Z,26.21
2022-08-05T14:05:48.269Z,26.05
2022-08-05T14:08:20.255Z,25.67
2022-08-05T14:10:49.047Z,25.77
2022-08-05T14:13:16.378Z,25.53
2022-08-05T14:16:05.294Z,25.74
2022-08-05T14:18:29.821Z,25.40
2022-08-05T14:20:56.475Z,25.05
2022-08-05T14:23:25.762Z,25.67
2022-08-05T14:25:58.490Z,26.26
2022-08-05T14:28:27.860Z,25.05
2022-08-05T14:30:56.650Z,25.47
2022-08-05T14:33:23.693Z,24.89
2022-08-05T14:35:53.956Z,24.90
2022-08-05T14:38:33.299Z,24.33
2022-08-05T14:41:06.945Z,24.66
2022-08-05T14:44:02.318Z,24.37
2022-08-05T14:46:29.162Z,24.86
2022-08-05T14:48:59.595Z,24.07
2022-08-05T14:51:34.006Z,24.75
2022-08-05T14:54:26.435Z,24.87
2022-08-05T14:56:48.294Z,25.81
2022-08-05T14:59:15.934Z,26.56
2022-08-05T15:01:49.008Z,26.48
2022-08-05T15:04:16.940Z,26.17
2022-08-05T15:06:48.978Z,26.41
2022-08-05T15:09:19.443Z,26.17
2022-08-05T15:12:04.794Z,26.64
2022-08-05T15:14:34.963Z,26.23
2022-08-05T15:17:10.014Z,26.75
2022-08-05T15:19:56.299Z,27.32
2022-08-05T15:22:27.032Z,27.09
2022-08-05T15:24:55.077Z,26.73
2022-08-05T15:27:21.700Z,26.84
2022-08-05T15:29:53.160Z,26.69
2022-08-05T15:32:27.138Z,26.06
2022-08-05T15:34:56.712Z,26.14
2022-08-05T15:38:32.842Z,26.44
2022-08-05T15:41:04.794Z,25.73
2022-08-05T15:43:10.948Z,25.58
2022-08-05T15:45:46.104Z,25.62
2022-08-05T15:48:15.181Z,25.72
2022-08-05T15:50:43.909Z,25.76
2022-08-05T15:53:12.641Z,26.13
2022-08-05T15:56:04.323Z,26.72
2022-08-05T15:58:30.042Z,27.59
2022-08-05T16:01:16.682Z,28.53
2022-08-05T16:03:50.257Z,28.80
2022-08-05T16:06:22.747Z,29.20
2022-08-05T16:08:53.664Z,29.75
2022-08-05T16:11:42.952Z,29.52
2022-08-05T16:14:09.517Z,29.55
2022-08-05T16:16:36.820Z,29.41
2022-08-05T16:19:03.932Z,29.20
2022-08-05T16:22:00.619Z,28.96
2022-08-05T16:24:41.453Z,29.50
2022-08-05T16:27:04.969Z,29.58
2022-08-05T16:29:37.412Z,29.70
2022-08-05T16:32:09.525Z,29.88
2022-08-05T16:34:36.481Z,29.58
2022-08-05T16:37:06.063Z,29.54
2022-08-05T16:40:04.665Z,29.64
2022-08-05T16:42:32.874Z,29.99
2022-08-05T16:45:00.457Z,30.00
2022-08-05T16:47:36.313Z,30.08
2022-08-05T16:50:14.756Z,30.85
2022-08-05T16:52:46.171Z,31.10
2022-08-05T16:55:12.983Z,31.24
2022-08-05T16:57:52.555Z,31.36
2022-08-05T17:00:34.983Z,32.00
2022-08-05T17:03:15.286Z,32.26
2022-08-05T17:05:53.584Z,32.63
2022-08-05T17:08:33.591Z,32.92
2022-08-05T17:11:12.787Z,32.94
2022-08-05T17:13:44.532Z,33.25
2022-08-05T17:16:29.825Z,33.33
2022-08-05T17:19:00.917Z,33.65
2022-08-05T17:21:35.589Z,33.51
2022-08-05T17:24:19.569Z,33.71
2022-08-05T17:26:52.737Z,34.21
2022-08-05T17:29:22.430Z,34.20
2022-08-05T17:31:59.738Z,34.68
2022-08-05T17:34:29.560Z,34.87
2022-08-05T17:36:57.363Z,34.63
2022-08-05T17:39:34.089Z,35.10
2022-08-05T17:42:19.801Z,35.02
2022-08-05T17:44:51.991Z,35.06
2022-08-05T17:47:22.238Z,35.38
2022-08-05T17:49:51.949Z,35.59
2022-08-05T17:52:30.601Z,35.54
2022-08-05T17:55:00.178Z,35.38
2022-08-05T17:57:28.402Z,35.35
2022-08-05T18:00:05.015Z,35.65
2022-08-05T18:02:34.123Z,35.94
2022-08-05T18:05:07.610Z,35.83
2022-08-05T18:07:41.370Z,36.48
2022-08-05T18:10:11.254Z,35.92
2022-08-05T18:12:39.565Z,35.81
2022-08-05T18:15:08.685Z,35.79
2022-08-05T18:17:58.927Z,36.09
2022-08-05T18:20:29.279Z,36.38
2022-08-05T18:23:00.683Z,36.76
2022-08-05T18:25:36.929Z,36.71
2022-08-05T18:28:06.890Z,36.29
2022-08-05T18:30:34.978Z,36.69
2022-08-05T18:33:02.344Z,36.46
2022-08-05T18:36:01.154Z,37.26
2022-08-05T18:38:19.275Z,39.73
2022-08-05T18:41:57.092Z,40.22
2022-08-05T18:43:43.214Z,40.15
2022-08-05T18:46:20.132Z,40.57
2022-08-05T18:48:53.531Z,40.88
2022-08-05T18:52:03.976Z,40.87
2022-08-05T18:54:31.340Z,41.58
2022-08-05T18:57:02.398Z,42.55
2022-08-05T18:59:44.470Z,42.66
2022-08-05T19:02:26.938Z,43.41
2022-08-05T19:05:02.114Z,43.29
2022-08-05T19:07:46.110Z,43.91
2022-08-05T19:10:14.553Z,44.73
2022-08-05T19:12:41.580Z,45.03
2022-08-05T19:15:54.673Z,45.37
2022-08-05T19:18:08.785Z,44.15
2022-08-05T19:20:41.288Z,45.71
2022-08-05T19:24:06.101Z,45.27
2022-08-05T19:26:01.595Z,47.14
2022-08-05T19:28:29.300Z,47.76
2022-08-05T19:30:55.989Z,47.72
2022-08-05T19:33:35.019Z,48.68
2022-08-05T19:36:06.377Z,48.62
2022-08-05T19:38:36.763Z,47.68
2022-08-05T19:41:08.930Z,47.59
2022-08-05T19:44:06.759Z,48.15
2022-08-05T19:46:30.340Z,48.43
2022-08-05T19:49:03.136Z,48.80
2022-08-05T19:52:04.551Z,49.67
2022-08-05T19:54:28.393Z,49.72
2022-08-05T19:56:59.801Z,49.93
2022-08-05T19:59:55.177Z,49.39
2022-08-05T20:02:18.301Z,49.91
2022-08-05T20:04:48.272Z,49.82
2022-08-05T20:07:15.470Z,49.64
2022-08-05T20:09:55.020Z,50.00
2022-08-05T20:12:25.171Z,50.78
2022-08-05T20:14:53.387Z,50.27
2022-08-05T20:17:23.407Z,50.86
2022-08-05T20:19:56.559Z,51.24
2022-08-05T20:22:25.010Z,51.90
2022-08-05T20:24:54.780Z,51.91
2022-08-05T20:27:26.993Z,52.08
2022-08-05T20:29:57.849Z,52.43
2022-08-05T20:32:27.518Z,53.27
2022-08-05T20:34:54.898Z,53.84
2022-08-05T20:38:06.705Z,53.99
2022-08-05T20:40:10.287Z,54.53
2022-08-05T20:42:37.611Z,54.85
2022-08-05T20:45:06.982Z,54.46
2022-08-05T20:47:40.067Z,54.54
2022-08-05T20:50:08.077Z,54.66
2022-08-05T20:52:39.237Z,54.59
2022-08-05T20:55:56.899Z,54.90
2022-08-05T20:57:56.418Z,54.10
2022-08-05T21:00:40.743Z,54.00
2022-08-05T21:03:11.020Z,56.28
2022-08-05T21:05:54.127Z,56.89
2022-08-05T21:08:41.405Z,57.59
2022-08-05T21:11:51.568Z,57.82
2022-08-05T21:14:01.013Z,56.63
2022-08-05T21:16:29.702Z,57.21
2022-08-05T21:18:59.972Z,56.88
2022-08-05T21:21:39.501Z,57.02
2022-08-05T21:24:12.879Z,58.40
2022-08-05T21:26:41.492Z,58.74
2022-08-05T21:29:12.616Z,57.96
2022-08-05T21:31:43.695Z,58.16
2022-08-05T21:34:11.545Z,58.18
2022-08-05T21:36:42.439Z,57.96
2022-08-05T21:39:14.349Z,58.65
2022-08-05T21:41:52.426Z,59.38
2022-08-05T21:44:27.025Z,59.96
2022-08-05T21:46:55.643Z,61.44
2022-08-05T21:50:00.199Z,61.67
2022-08-05T21:52:22.826Z,63.06
2022-08-05T21:54:56.367Z,62.81
2022-08-05T21:57:32.433Z,63.51
2022-08-05T22:00:05.773Z,62.86
2022-08-05T22:02:34.777Z,64.03
2022-08-05T22:05:02.026Z,63.31
2022-08-05T22:07:39.334Z,64.30
2022-08-05T22:10:25.488Z,62.77
2022-08-05T22:12:53.905Z,62.76
2022-08-05T22:16:01.498Z,61.84
2022-08-05T22:18:08.706Z,61.51
2022-08-05T22:20:39.003Z,61.83
2022-08-05T22:23:24.793Z,61.03
2022-08-05T22:26:30.303Z,61.49
2022-08-05T22:28:57.368Z,61.38
2022-08-05T22:31:29.989Z,59.92
2022-08-05T22:34:01.010Z,59.97
2022-08-05T22:36:28.368Z,59.62
2022-08-05T22:38:56.853Z,59.06
2022-08-05T22:41:26.307Z,59.23
2022-08-05T22:44:12.112Z,58.45
2022-08-05T22:46:40.799Z,58.13
2022-08-05T22:49:23.110Z,58.17
2022-08-05T22:52:06.643Z,58.80
2022-08-05T22:54:36.278Z,58.50
2022-08-05T22:57:05.073Z,58.13
2022-08-05T22:59:45.279Z,59.78
2022-08-05T23:02:17.800Z,59.29
2022-08-05T23:04:51.604Z,60.88
2022-08-05T23:07:21.915Z,59.87
2022-08-05T23:09:56.979Z,61.96
2022-08-05T23:12:32.851Z,62.93
2022-08-05T23:15:00.564Z,63.84
2022-08-05T23:17:34.390Z,63.82
2022-08-05T23:20:16.990Z,65.41
2022-08-05T23:22:48.712Z,65.69
2022-08-05T23:25:51.178Z,65.49
2022-08-05T23:28:06.861Z,64.14
2022-08-05T23:30:40.326Z,65.13
2022-08-05T23:33:21.894Z,66.47
2022-08-05T23:35:50.413Z,68.26
2022-08-05T23:38:18.151Z,68.08
2022-08-05T23:40:49.887Z,69.73
2022-08-05T23:43:25.335Z,69.84
2022-08-05T23:46:21.133Z,69.96
2022-08-05T23:49:00.840Z,69.77
2022-08-05T23:51:53.612Z,69.36
2022-08-05T23:54:26.744Z,69.32
2022-08-05T23:57:03.371Z,69.57
